Time;durP1;ratioP1;P1;durP2;ratioP2;P2;SDS_P1;SDS_P2;PMS_P1;PMS_P2;Temp;Humidity;BMP_temperature;BMP_pressure;BME280_temperature;BME280_humidity;BME280_pressure;Samples;Min_cycle;Max_cycle;Signal;HPM_P1;HPM_P2
2022/05/24 00:00:17;;;;;;;3.93;2.60;;;;;;;;;;5029203;28;20183;-77
2022/05/24 00:02:45;;;;;;;2.93;2.43;;;;;;;;;;5028389;28;20694;-77
2022/05/24 00:05:12;;;;;;;4.57;3.17;;;;;;;;;;5028772;28;20582;-77
2022/05/24 00:07:40;;;;;;;3.77;1.87;;;;;;;;;;5028578;28;20195;-76
2022/05/24 00:10:12;;;;;;;2.87;2.50;;;;;;;;;;5028542;28;20205;-77
2022/05/24 00:12:39;;;;;;;2.60;2.20;;;;;;;;;;5028239;28;20187;-77
2022/05/24 00:15:29;;;;;;;3.80;2.30;;;;;;;;;;5029740;28;20198;-77
2022/05/24 00:17:59;;;;;;;3.47;2.27;;;;;;;;;;5048430;28;20228;-77
2022/05/24 00:20:29;;;;;;;7.13;2.90;;;;;;;;;;5048340;28;20194;-77
2022/05/24 00:22:56;;;;;;;6.87;3.33;;;;;;;;;;5048388;28;20193;-77
2022/05/24 00:25:25;;;;;;;2.27;2.07;;;;;;;;;;5048527;28;20205;-77
2022/05/24 00:27:52;;;;;;;2.10;2.00;;;;;;;;;;5048775;28;20230;-76
2022/05/24 00:30:20;;;;;;;4.17;2.73;;;;;;;;;;5051731;28;20201;-76
2022/05/24 00:32:48;;;;;;;3.27;2.97;;;;;;;;;;5051332;28;20221;-77
2022/05/24 00:35:16;;;;;;;3.33;2.50;;;;;;;;;;5052049;28;20216;-76
2022/05/24 00:37:44;;;;;;;4.60;2.33;;;;;;;;;;5051535;28;20206;-76
2022/05/24 00:40:15;;;;;;;3.77;2.50;;;;;;;;;;5051608;28;20206;-77
2022/05/24 00:42:46;;;;;;;4.90;2.90;;;;;;;;;;5051618;28;20269;-76
2022/05/24 00:45:16;;;;;;;4.47;2.80;;;;;;;;;;5051895;28;20194;-76
2022/05/24 00:47:46;;;;;;;3.23;2.57;;;;;;;;;;5051354;28;20193;-77
2022/05/24 00:50:15;;;;;;;2.73;2.53;;;;;;;;;;5051481;28;20212;-76
2022/05/24 00:52:47;;;;;;;4.43;2.50;;;;;;;;;;5051191;28;20194;-76
2022/05/24 00:55:16;;;;;;;3.57;2.40;;;;;;;;;;5051363;28;20189;-77
2022/05/24 00:57:48;;;;;;;3.00;2.50;;;;;;;;;;5051297;28;20198;-77
2022/05/24 01:00:18;;;;;;;3.23;2.47;;;;;;;;;;5051498;28;20182;-76
2022/05/24 01:02:45;;;;;;;2.60;2.40;;;;;;;;;;5051370;28;20183;-76
2022/05/24 01:05:16;;;;;;;2.87;2.60;;;;;;;;;;5036509;28;20203;-76
2022/05/24 01:07:43;;;;;;;2.33;2.13;;;;;;;;;;5031179;28;20191;-77
2022/05/24 01:10:13;;;;;;;2.43;2.33;;;;;;;;;;5051109;28;20216;-76
2022/05/24 01:12:43;;;;;;;5.47;3.13;;;;;;;;;;5050731;28;20225;-76
2022/05/24 01:15:12;;;;;;;2.00;1.90;;;;;;;;;;5051657;28;20197;-77
2022/05/24 01:17:40;;;;;;;5.10;2.80;;;;;;;;;;5051235;28;20205;-77
2022/05/24 01:20:09;;;;;;;3.83;2.63;;;;;;;;;;5050972;28;20671;-77
2022/05/24 01:23:07;;;;;;;3.73;2.80;;;;;;;;;;5050738;28;20654;-76
2022/05/24 01:25:38;;;;;;;4.13;2.60;;;;;;;;;;5050853;28;20195;-76
2022/05/24 01:28:12;;;;;;;2.80;2.50;;;;;;;;;;5050925;28;20643;-77
2022/05/24 01:30:39;;;;;;;2.73;2.53;;;;;;;;;;5050405;28;20185;-77
2022/05/24 01:38:35;;;;;;;3.13;2.70;;;;;;;;;;5050684;28;20188;-76
2022/05/24 01:41:03;;;;;;;3.03;2.73;;;;;;;;;;5050699;28;20194;-76
2022/05/24 01:43:32;;;;;;;2.87;2.50;;;;;;;;;;5050728;28;20200;-76
2022/05/24 01:46:03;;;;;;;3.63;2.70;;;;;;;;;;5050367;28;20291;-76
2022/05/24 01:48:33;;;;;;;4.17;3.03;;;;;;;;;;5050701;28;20273;-76
2022/05/24 01:51:01;;;;;;;5.33;3.43;;;;;;;;;;5050141;28;20206;-77
2022/05/24 01:53:32;;;;;;;4.73;2.60;;;;;;;;;;5050512;28;20205;-76
2022/05/24 01:56:01;;;;;;;3.37;3.00;;;;;;;;;;5050316;28;20186;-76
2022/05/24 01:58:32;;;;;;;4.20;3.00;;;;;;;;;;5050514;28;20227;-76
2022/05/24 02:01:03;;;;;;;3.17;2.80;;;;;;;;;;5050264;28;20229;-77
2022/05/24 02:03:30;;;;;;;3.60;3.07;;;;;;;;;;5050472;28;20246;-77
2022/05/24 02:05:58;;;;;;;3.53;3.23;;;;;;;;;;5050069;28;20210;-77
2022/05/24 02:08:25;;;;;;;5.07;3.47;;;;;;;;;;5050016;28;20671;-76
2022/05/24 02:10:55;;;;;;;4.43;4.00;;;;;;;;;;5049945;28;20198;-76
2022/05/24 02:13:26;;;;;;;3.50;3.23;;;;;;;;;;5050249;28;20198;-76
2022/05/24 02:15:57;;;;;;;4.27;3.70;;;;;;;;;;5049798;28;20184;-76
2022/05/24 02:18:25;;;;;;;3.40;3.13;;;;;;;;;;5050059;28;20194;-76
2022/05/24 02:20:52;;;;;;;4.50;3.27;;;;;;;;;;5049943;28;20201;-76
2022/05/24 02:23:20;;;;;;;3.20;3.00;;;;;;;;;;5049750;28;20201;-76
2022/05/24 02:25:50;;;;;;;3.37;3.07;;;;;;;;;;5049821;28;20210;-76
2022/05/24 02:28:19;;;;;;;3.37;2.80;;;;;;;;;;5049876;28;20585;-75
2022/05/24 02:30:48;;;;;;;6.77;3.60;;;;;;;;;;5050096;28;20204;-76
2022/05/24 02:33:18;;;;;;;3.40;2.77;;;;;;;;;;5049948;28;20577;-76
2022/05/24 02:35:45;;;;;;;3.10;2.80;;;;;;;;;;5049752;28;20206;-76
2022/05/24 02:38:12;;;;;;;2.90;2.70;;;;;;;;;;5049664;28;20202;-76
2022/05/24 02:43:26;;;;;;;3.60;3.40;;;;;;;;;;5067053;28;20229;-76
2022/05/24 02:45:53;;;;;;;5.33;2.87;;;;;;;;;;5049438;28;20189;-75
2022/05/24 02:48:22;;;;;;;3.23;2.90;;;;;;;;;;5049627;28;20255;-76
2022/05/24 02:50:49;;;;;;;3.03;2.73;;;;;;;;;;5049021;28;20204;-75
2022/05/24 02:53:16;;;;;;;5.10;3.43;;;;;;;;;;5049507;28;20628;-76
2022/05/24 02:55:44;;;;;;;3.20;3.00;;;;;;;;;;5049484;28;20204;-76
2022/05/24 02:58:11;;;;;;;3.77;3.30;;;;;;;;;;5050097;27;20212;-76
2022/05/24 03:00:38;;;;;;;4.00;2.50;;;;;;;;;;5049095;28;20236;-76
2022/05/24 03:03:05;;;;;;;3.33;2.80;;;;;;;;;;5049378;28;20563;-76
2022/05/24 03:05:34;;;;;;;3.80;2.80;;;;;;;;;;5049067;28;20190;-76
2022/05/24 03:10:46;;;;;;;3.57;3.17;;;;;;;;;;5049176;28;20177;-76
2022/05/24 03:15:58;;;;;;;6.17;2.80;;;;;;;;;;5048827;28;20184;-76
2022/05/24 03:18:25;;;;;;;6.57;2.93;;;;;;;;;;5049143;28;20584;-76
2022/05/24 03:20:54;;;;;;;2.73;2.53;;;;;;;;;;5048598;28;20202;-76
2022/05/24 03:23:21;;;;;;;2.50;2.23;;;;;;;;;;5048779;28;20210;-76
2022/05/24 03:25:48;;;;;;;2.90;2.57;;;;;;;;;;5048890;28;20208;-77
2022/05/24 03:28:19;;;;;;;3.00;2.43;;;;;;;;;;5049026;28;20277;-76
2022/05/24 03:30:47;;;;;;;3.60;2.47;;;;;;;;;;5048859;28;20190;-76
2022/05/24 03:33:14;;;;;;;3.90;2.20;;;;;;;;;;5048647;28;20230;-76
2022/05/24 03:35:41;;;;;;;2.97;2.50;;;;;;;;;;5048740;28;20201;-76
2022/05/24 03:38:10;;;;;;;7.23;2.67;;;;;;;;;;5048646;28;20589;-76
2022/05/24 03:40:37;;;;;;;5.90;3.30;;;;;;;;;;5048675;28;20198;-76
2022/05/24 03:43:07;;;;;;;3.17;2.73;;;;;;;;;;5045356;28;20286;-76
2022/05/24 03:45:35;;;;;;;2.67;2.47;;;;;;;;;;5028649;28;20570;-77
2022/05/24 03:48:02;;;;;;;4.57;2.60;;;;;;;;;;5042453;28;20202;-76
2022/05/24 03:50:29;;;;;;;4.93;2.87;;;;;;;;;;5048612;28;20198;-76
2022/05/24 03:52:57;;;;;;;4.73;3.33;;;;;;;;;;5048569;28;20225;-76
2022/05/24 03:55:25;;;;;;;2.93;2.70;;;;;;;;;;5048641;28;20285;-76
2022/05/24 03:58:02;;;;;;;3.37;3.07;;;;;;;;;;5048300;28;20292;-76
2022/05/24 04:00:31;;;;;;;7.43;3.40;;;;;;;;;;5048205;28;20237;-76
2022/05/24 04:02:59;;;;;;;3.40;3.10;;;;;;;;;;5049137;28;20178;-76
2022/05/24 04:05:26;;;;;;;3.03;2.83;;;;;;;;;;5046402;28;20204;-76
2022/05/24 04:07:53;;;;;;;4.23;2.47;;;;;;;;;;5040853;28;20236;-76
2022/05/24 04:10:21;;;;;;;3.37;2.77;;;;;;;;;;5040418;28;20781;-76
2022/05/24 04:12:50;;;;;;;3.23;2.93;;;;;;;;;;5031785;28;20218;-76
2022/05/24 04:15:17;;;;;;;3.73;2.60;;;;;;;;;;5031966;28;20190;-76
2022/05/24 04:17:46;;;;;;;3.30;3.00;;;;;;;;;;5031885;28;20674;-76
2022/05/24 04:20:14;;;;;;;3.27;2.90;;;;;;;;;;5039594;28;20642;-76
2022/05/24 04:22:42;;;;;;;3.07;2.87;;;;;;;;;;5051532;28;20194;-76
2022/05/24 04:25:09;;;;;;;2.60;2.40;;;;;;;;;;5052073;28;20208;-76
2022/05/24 04:27:36;;;;;;;4.70;2.77;;;;;;;;;;5051601;28;20198;-76
2022/05/24 04:30:08;;;;;;;6.97;3.70;;;;;;;;;;5049645;28;20232;-76
2022/05/24 04:32:35;;;;;;;4.07;3.67;;;;;;;;;;5050956;28;20213;-76
2022/05/24 04:35:03;;;;;;;4.83;3.43;;;;;;;;;;5051633;28;20202;-76
2022/05/24 04:37:30;;;;;;;3.70;3.40;;;;;;;;;;5051370;28;20194;-76
2022/05/24 04:39:57;;;;;;;5.33;3.80;;;;;;;;;;5051989;28;20201;-76
2022/05/24 04:42:23;;;;;;;3.43;3.13;;;;;;;;;;5051259;28;20218;-76
2022/05/24 04:44:52;;;;;;;4.93;3.50;;;;;;;;;;5031578;28;20310;-76
2022/05/24 04:47:22;;;;;;;5.70;3.43;;;;;;;;;;5031634;28;20651;-76
2022/05/24 04:49:54;;;;;;;5.60;3.33;;;;;;;;;;5031686;28;20199;-76
2022/05/24 04:52:23;;;;;;;5.17;3.67;;;;;;;;;;5031511;28;20295;-76
2022/05/24 04:54:51;;;;;;;3.83;3.53;;;;;;;;;;5031684;28;20202;-76
2022/05/24 04:57:19;;;;;;;5.23;3.40;;;;;;;;;;5037989;28;20200;-76
2022/05/24 04:59:46;;;;;;;3.77;3.40;;;;;;;;;;5050669;28;20773;-76
2022/05/24 05:02:14;;;;;;;4.53;4.13;;;;;;;;;;5038759;28;20230;-76
2022/05/24 05:04:42;;;;;;;4.27;3.47;;;;;;;;;;5042636;28;20206;-76
2022/05/24 05:07:09;;;;;;;4.57;4.27;;;;;;;;;;5030985;28;20205;-76
2022/05/24 05:09:38;;;;;;;6.03;4.47;;;;;;;;;;5031207;28;20225;-76
2022/05/24 05:12:06;;;;;;;4.00;3.70;;;;;;;;;;5030854;28;20231;-76
2022/05/24 05:14:34;;;;;;;3.70;3.40;;;;;;;;;;5030407;28;20207;-75
2022/05/24 05:17:01;;;;;;;5.43;3.83;;;;;;;;;;5042806;28;20202;-76
2022/05/24 05:19:29;;;;;;;5.73;3.70;;;;;;;;;;5050687;28;20210;-76
2022/05/24 05:21:58;;;;;;;5.37;4.20;;;;;;;;;;5051124;27;20274;-76
2022/05/24 05:24:25;;;;;;;4.27;3.30;;;;;;;;;;5050730;28;20217;-76
2022/05/24 05:26:52;;;;;;;4.30;3.90;;;;;;;;;;5050601;28;20670;-76
2022/05/24 05:31:16;;;;;;;8.37;4.00;;;;;;;;;;5050696;28;20688;-76
2022/05/24 05:32:07;;;;;;;5.00;3.73;;;;;;;;;;5050555;28;20217;-76
2022/05/24 05:34:34;;;;;;;3.67;3.37;;;;;;;;;;5050431;28;20202;-76
2022/05/24 05:37:07;;;;;;;3.43;3.13;;;;;;;;;;5050739;28;20946;-76
2022/05/24 05:39:36;;;;;;;5.53;3.30;;;;;;;;;;5050509;28;20193;-76
2022/05/24 05:42:03;;;;;;;4.87;2.30;;;;;;;;;;5050190;28;20678;-76
2022/05/24 05:44:31;;;;;;;3.00;2.20;;;;;;;;;;5047341;28;20237;-75
2022/05/24 05:46:58;;;;;;;2.53;2.27;;;;;;;;;;5044607;28;20205;-76
2022/05/24 05:49:25;;;;;;;4.23;2.17;;;;;;;;;;5050483;28;20228;-75
2022/05/24 05:51:52;;;;;;;7.07;2.43;;;;;;;;;;5049968;28;20198;-75
2022/05/24 05:54:21;;;;;;;4.17;1.93;;;;;;;;;;5050394;28;20742;-75
2022/05/24 05:56:49;;;;;;;5.50;2.43;;;;;;;;;;5046100;27;20277;-75
2022/05/24 05:59:16;;;;;;;2.37;2.23;;;;;;;;;;5139469;27;20218;-75
2022/05/24 06:01:43;;;;;;;1.97;1.77;;;;;;;;;;5154661;27;20629;-75
2022/05/24 06:04:11;;;;;;;2.83;2.13;;;;;;;;;;5155400;27;20702;-75
2022/05/24 06:06:40;;;;;;;2.93;1.77;;;;;;;;;;5153815;27;20200;-75
2022/05/24 06:09:07;;;;;;;2.53;2.27;;;;;;;;;;5155595;27;20194;-75
2022/05/24 06:11:36;;;;;;;2.93;1.97;;;;;;;;;;5154905;27;20204;-75
2022/05/24 06:14:03;;;;;;;5.80;2.50;;;;;;;;;;5155039;27;20221;-75
2022/05/24 06:16:30;;;;;;;2.33;2.10;;;;;;;;;;5155077;27;20204;-76
2022/05/24 06:18:58;;;;;;;8.77;2.30;;;;;;;;;;5064754;27;20220;-76
2022/05/24 06:21:25;;;;;;;4.47;2.10;;;;;;;;;;5032104;28;20687;-76
2022/05/24 06:23:52;;;;;;;1.80;1.70;;;;;;;;;;5029987;28;20690;-76
2022/05/24 06:26:21;;;;;;;1.73;1.63;;;;;;;;;;5029016;28;20209;-76
2022/05/24 06:28:50;;;;;;;8.40;2.67;;;;;;;;;;5029888;28;20200;-76
2022/05/24 06:31:17;;;;;;;3.03;2.13;;;;;;;;;;5030606;28;20198;-76
2022/05/24 06:33:44;;;;;;;3.87;2.03;;;;;;;;;;5029614;28;20225;-76
2022/05/24 06:36:12;;;;;;;3.10;1.83;;;;;;;;;;5030235;28;20344;-76
2022/05/24 06:38:39;;;;;;;1.67;1.47;;;;;;;;;;5029956;28;20549;-76
2022/05/24 06:41:06;;;;;;;5.63;1.80;;;;;;;;;;5030273;28;20203;-76
2022/05/24 06:43:33;;;;;;;3.07;1.80;;;;;;;;;;5029543;28;20671;-76
2022/05/24 06:46:07;;;;;;;2.50;1.93;;;;;;;;;;5029996;28;20606;-76
2022/05/24 06:48:34;;;;;;;2.50;1.80;;;;;;;;;;5092309;27;20209;-76
2022/05/24 06:51:03;;;;;;;2.50;1.50;;;;;;;;;;5154772;27;20194;-76
2022/05/24 06:53:30;;;;;;;2.83;2.20;;;;;;;;;;5154189;27;20221;-76
2022/05/24 06:55:57;;;;;;;1.63;1.53;;;;;;;;;;5154322;27;20254;-76
2022/05/24 06:58:24;;;;;;;3.03;2.30;;;;;;;;;;5154487;27;20197;-76
2022/05/24 07:03:38;;;;;;;5.60;2.17;;;;;;;;;;5154245;27;20703;-76
2022/05/24 07:06:05;;;;;;;2.30;1.83;;;;;;;;;;5153791;27;20194;-76
2022/05/24 07:08:32;;;;;;;4.47;2.27;;;;;;;;;;5153952;27;20193;-76
2022/05/24 07:11:00;;;;;;;2.93;2.23;;;;;;;;;;5154006;27;20190;-79
2022/05/24 07:13:27;;;;;;;3.00;2.07;;;;;;;;;;5154136;27;20632;-76
2022/05/24 07:15:54;;;;;;;3.20;2.00;;;;;;;;;;5153695;27;20284;-76
2022/05/24 07:18:22;;;;;;;4.47;2.47;;;;;;;;;;5153822;27;20193;-76
2022/05/24 07:20:50;;;;;;;3.23;2.00;;;;;;;;;;5105072;27;20693;-76
2022/05/24 07:23:19;;;;;;;3.97;2.10;;;;;;;;;;5153564;27;20194;-76
2022/05/24 07:25:48;;;;;;;3.20;2.30;;;;;;;;;;5154058;27;20574;-76
2022/05/24 07:28:17;;;;;;;3.63;1.90;;;;;;;;;;5153690;27;20190;-76
2022/05/24 07:30:45;;;;;;;8.33;2.30;;;;;;;;;;5153702;27;20194;-76
2022/05/24 07:33:13;;;;;;;3.00;2.50;;;;;;;;;;5153251;27;20235;-76
2022/05/24 07:35:40;;;;;;;3.77;3.17;;;;;;;;;;5153631;27;20681;-76
2022/05/24 07:38:10;;;;;;;7.97;4.20;;;;;;;;;;5153253;27;20577;-76
2022/05/24 07:46:09;;;;;;;3.77;2.17;;;;;;;;;;5153541;27;20246;-76
2022/05/24 07:48:36;;;;;;;2.87;2.37;;;;;;;;;;5153898;27;20714;-76
2022/05/24 07:51:04;;;;;;;4.20;2.67;;;;;;;;;;5154206;27;20196;-76
2022/05/24 07:53:33;;;;;;;3.40;2.77;;;;;;;;;;5153295;27;20593;-76
2022/05/24 07:56:01;;;;;;;2.90;2.70;;;;;;;;;;5153782;27;20574;-76
2022/05/24 07:58:28;;;;;;;5.27;3.07;;;;;;;;;;5153219;27;20190;-76
2022/05/24 08:00:56;;;;;;;3.40;3.03;;;;;;;;;;5153449;27;20225;-76
2022/05/24 08:03:23;;;;;;;7.20;2.93;;;;;;;;;;5152990;27;20225;-76
2022/05/24 08:05:50;;;;;;;3.27;2.37;;;;;;;;;;5153336;27;20197;-76
2022/05/24 08:08:17;;;;;;;3.23;2.50;;;;;;;;;;5153082;27;20194;-77
2022/05/24 08:10:46;;;;;;;4.80;2.37;;;;;;;;;;5153319;27;20194;-77
2022/05/24 08:13:15;;;;;;;3.97;2.73;;;;;;;;;;5152767;27;20221;-80
2022/05/24 08:15:43;;;;;;;4.23;2.40;;;;;;;;;;5153256;27;20570;-77
2022/05/24 08:18:10;;;;;;;7.43;2.63;;;;;;;;;;5153059;27;20233;-76
2022/05/24 08:20:38;;;;;;;5.20;2.37;;;;;;;;;;5153219;27;20273;-76
2022/05/24 08:23:05;;;;;;;4.10;2.50;;;;;;;;;;5152867;27;20674;-80
2022/05/24 08:25:33;;;;;;;4.03;2.40;;;;;;;;;;5153542;27;20229;-77
2022/05/24 08:28:02;;;;;;;4.40;2.57;;;;;;;;;;5153041;27;20718;-76
2022/05/24 08:30:31;;;;;;;3.00;2.50;;;;;;;;;;5153490;27;20662;-77
2022/05/24 08:32:59;;;;;;;4.83;2.63;;;;;;;;;;5153022;27;20220;-76
2022/05/24 08:35:26;;;;;;;5.70;3.03;;;;;;;;;;5153366;27;20194;-76
2022/05/24 08:37:54;;;;;;;3.20;2.87;;;;;;;;;;5153148;27;20567;-76
2022/05/24 08:40:22;;;;;;;3.50;3.20;;;;;;;;;;5153072;27;20209;-77
2022/05/24 08:43:10;;;;;;;3.83;3.40;;;;;;;;;;5152937;27;20602;-76
2022/05/24 08:48:32;;;;;;;4.33;3.00;;;;;;;;;;5047516;28;20252;-76
2022/05/24 08:51:02;;;;;;;6.07;3.23;;;;;;;;;;5051420;28;20182;-76
2022/05/24 08:53:33;;;;;;;6.47;3.77;;;;;;;;;;5050807;28;20218;-76
2022/05/24 08:56:03;;;;;;;4.43;2.83;;;;;;;;;;5051435;28;20642;-76
2022/05/24 08:58:32;;;;;;;4.67;2.90;;;;;;;;;;5051296;28;20198;-77
2022/05/24 09:01:02;;;;;;;3.70;2.50;;;;;;;;;;5050930;28;20238;-76
2022/05/24 09:03:29;;;;;;;8.80;3.50;;;;;;;;;;5049089;28;20201;-76
2022/05/24 09:06:01;;;;;;;9.53;8.67;;;;;;;;;;5050224;28;20190;-76
2022/05/24 09:08:31;;;;;;;9.73;6.70;;;;;;;;;;5049620;28;20243;-76
2022/05/24 09:11:07;;;;;;;8.93;6.67;;;;;;;;;;5050670;28;20197;-76
2022/05/24 09:13:57;;;;;;;8.13;6.37;;;;;;;;;;5050575;28;20206;-76
2022/05/24 09:16:34;;;;;;;8.57;5.00;;;;;;;;;;5053611;27;20232;-76
2022/05/24 09:19:05;;;;;;;8.17;3.03;;;;;;;;;;5051226;28;20185;-77
2022/05/24 09:21:35;;;;;;;5.87;3.10;;;;;;;;;;5050880;28;20186;-76
2022/05/24 09:24:10;;;;;;;5.47;3.37;;;;;;;;;;5050921;28;20194;-76
2022/05/24 09:27:08;;;;;;;3.73;2.93;;;;;;;;;;5050372;28;20185;-76
2022/05/24 09:29:36;;;;;;;8.43;2.77;;;;;;;;;;5051086;28;20186;-76
2022/05/24 09:32:09;;;;;;;6.47;3.17;;;;;;;;;;5050517;28;20202;-76
2022/05/24 09:34:38;;;;;;;3.60;3.30;;;;;;;;;;5050354;28;20301;-76
2022/05/24 09:37:07;;;;;;;3.23;2.83;;;;;;;;;;5050547;28;20194;-76
2022/05/24 09:39:36;;;;;;;4.73;3.20;;;;;;;;;;5050481;28;20223;-76
2022/05/24 09:42:06;;;;;;;5.23;3.40;;;;;;;;;;5050833;28;20194;-76
2022/05/24 09:44:46;;;;;;;3.67;2.83;;;;;;;;;;5050299;28;20202;-76
2022/05/24 09:47:24;;;;;;;6.80;2.90;;;;;;;;;;5050407;28;20639;-76
2022/05/24 09:49:52;;;;;;;3.47;2.50;;;;;;;;;;5051844;27;20209;-76
2022/05/24 09:52:19;;;;;;;2.80;2.60;;;;;;;;;;5050183;28;20246;-76
2022/05/24 09:54:54;;;;;;;5.23;2.93;;;;;;;;;;5050432;28;20344;-76
2022/05/24 09:57:25;;;;;;;6.57;2.80;;;;;;;;;;5050126;28;20202;-76
2022/05/24 10:00:03;;;;;;;3.73;3.27;;;;;;;;;;5050276;28;20194;-76
2022/05/24 10:02:34;;;;;;;4.83;2.97;;;;;;;;;;5047872;28;20226;-76
2022/05/24 10:05:02;;;;;;;6.73;3.00;;;;;;;;;;5042078;28;20631;-76
2022/05/24 10:07:32;;;;;;;4.60;3.10;;;;;;;;;;5046751;28;20202;-76
2022/05/24 10:10:04;;;;;;;4.50;2.90;;;;;;;;;;5050405;28;20209;-76
2022/05/24 10:12:41;;;;;;;3.13;2.87;;;;;;;;;;5049689;28;20190;-76
2022/05/24 10:15:18;;;;;;;3.57;3.27;;;;;;;;;;5049844;28;20213;-76
2022/05/24 10:17:56;;;;;;;7.33;3.37;;;;;;;;;;5037747;28;20202;-76
2022/05/24 10:20:27;;;;;;;4.23;3.30;;;;;;;;;;5030431;28;20183;-76
2022/05/24 10:22:59;;;;;;;4.47;3.03;;;;;;;;;;5030132;28;20213;-76
2022/05/24 10:25:30;;;;;;;5.23;3.33;;;;;;;;;;5029924;28;20223;-76
2022/05/24 10:28:06;;;;;;;3.97;2.83;;;;;;;;;;5030196;28;20187;-76
2022/05/24 10:30:44;;;;;;;8.37;3.23;;;;;;;;;;5029949;28;20213;-76
2022/05/24 10:39:17;;;;;;;6.10;3.20;;;;;;;;;;5029785;28;20182;-76
2022/05/24 10:41:53;;;;;;;3.53;3.20;;;;;;;;;;5030030;28;20191;-76
2022/05/24 10:44:26;;;;;;;4.30;2.80;;;;;;;;;;5029733;28;20182;-76
2022/05/24 10:47:00;;;;;;;4.63;3.23;;;;;;;;;;5029988;28;20189;-76
2022/05/24 10:49:33;;;;;;;6.20;3.67;;;;;;;;;;5029460;28;20193;-77
2022/05/24 10:52:04;;;;;;;5.63;4.57;;;;;;;;;;5029881;28;20236;-76
2022/05/24 10:54:38;;;;;;;15.90;12.60;;;;;;;;;;5029721;28;20267;-76
2022/05/24 10:57:10;;;;;;;8.00;6.13;;;;;;;;;;5029580;28;20191;-76
2022/05/24 10:59:43;;;;;;;4.93;4.13;;;;;;;;;;5029724;28;20678;-76
2022/05/24 11:02:18;;;;;;;7.47;3.73;;;;;;;;;;5028809;28;20227;-76
2022/05/24 11:04:51;;;;;;;4.17;3.67;;;;;;;;;;5029481;28;20190;-76
2022/05/24 11:07:20;;;;;;;3.90;3.47;;;;;;;;;;5029653;28;20675;-76
2022/05/24 11:09:59;;;;;;;7.70;3.80;;;;;;;;;;5029743;28;20700;-76
2022/05/24 11:12:29;;;;;;;4.87;3.40;;;;;;;;;;5028651;28;20603;-76
2022/05/24 11:14:58;;;;;;;7.20;3.80;;;;;;;;;;5029255;28;20229;-76
2022/05/24 11:17:26;;;;;;;7.90;4.00;;;;;;;;;;5029244;28;20195;-76
2022/05/24 11:19:56;;;;;;;7.83;3.53;;;;;;;;;;5029332;28;20201;-76
2022/05/24 11:22:28;;;;;;;4.80;3.43;;;;;;;;;;5029004;28;20341;-76
2022/05/24 11:25:00;;;;;;;4.70;4.13;;;;;;;;;;5029242;28;20240;-77
2022/05/24 11:27:30;;;;;;;3.73;3.43;;;;;;;;;;5029252;28;20226;-77
2022/05/24 11:30:00;;;;;;;5.20;3.80;;;;;;;;;;5029514;28;20279;-77
2022/05/24 11:32:33;;;;;;;4.77;3.30;;;;;;;;;;5028769;28;20298;-76
2022/05/24 11:35:06;;;;;;;6.37;3.67;;;;;;;;;;5029050;28;20206;-77
2022/05/24 11:37:35;;;;;;;5.50;3.97;;;;;;;;;;5028934;28;20226;-77
2022/05/24 11:40:34;;;;;;;6.07;3.77;;;;;;;;;;5029097;28;20636;-76
2022/05/24 11:43:02;;;;;;;5.63;4.03;;;;;;;;;;5028722;28;20203;-76
2022/05/24 11:46:02;;;;;;;6.53;3.97;;;;;;;;;;5029451;28;20190;-76
2022/05/24 11:48:42;;;;;;;6.87;3.90;;;;;;;;;;5029028;28;20206;-77
2022/05/24 11:51:37;;;;;;;4.00;3.60;;;;;;;;;;5028804;28;20202;-76
2022/05/24 11:54:07;;;;;;;9.83;3.30;;;;;;;;;;5028636;28;20213;-77
2022/05/24 11:56:35;;;;;;;3.93;3.47;;;;;;;;;;5029369;28;20195;-76
2022/05/24 11:59:04;;;;;;;7.27;4.27;;;;;;;;;;5029022;28;20199;-77
2022/05/24 12:01:47;;;;;;;9.70;5.70;;;;;;;;;;5028579;28;20238;-79
2022/05/24 12:10:50;;;;;;;6.37;4.50;;;;;;;;;;5029094;28;20213;-78
2022/05/24 12:13:51;;;;;;;4.93;4.53;;;;;;;;;;5013685;27;20206;-79
2022/05/24 12:16:48;;;;;;;9.13;5.00;;;;;;;;;;5028614;28;20260;-79
2022/05/24 12:19:42;;;;;;;4.70;4.17;;;;;;;;;;5028420;28;20183;-80
2022/05/24 12:22:10;;;;;;;4.90;3.60;;;;;;;;;;5028489;28;20203;-79
2022/05/24 12:24:54;;;;;;;6.70;4.27;;;;;;;;;;5030301;28;20190;-79
2022/05/24 12:27:50;;;;;;;7.03;4.80;;;;;;;;;;5031966;28;20578;-78
2022/05/24 12:30:44;;;;;;;3.63;3.33;;;;;;;;;;5032203;28;20183;-78
2022/05/24 12:33:37;;;;;;;2.97;2.67;;;;;;;;;;5031871;28;20613;-78
2022/05/24 12:36:20;;;;;;;3.20;2.90;;;;;;;;;;5027864;28;20230;-78
2022/05/24 12:38:50;;;;;;;7.20;2.47;;;;;;;;;;5031581;28;20197;-78
2022/05/24 12:41:22;;;;;;;2.37;2.27;;;;;;;;;;5032222;28;20655;-78
2022/05/24 12:43:55;;;;;;;4.43;2.17;;;;;;;;;;5032057;28;20218;-78
2022/05/24 12:46:25;;;;;;;3.00;2.60;;;;;;;;;;5031527;28;20613;-77
2022/05/24 12:48:59;;;;;;;3.33;3.00;;;;;;;;;;5046181;27;20208;-78
2022/05/24 12:51:26;;;;;;;2.53;2.27;;;;;;;;;;5050199;27;20212;-77
2022/05/24 12:53:53;;;;;;;3.73;3.00;;;;;;;;;;5050800;28;20209;-77
2022/05/24 12:56:23;;;;;;;3.97;3.57;;;;;;;;;;5050783;28;20196;-77
2022/05/24 12:58:54;;;;;;;4.07;2.67;;;;;;;;;;5051124;28;20200;-77
2022/05/24 13:01:25;;;;;;;3.00;2.80;;;;;;;;;;5049343;28;20232;-77
2022/05/24 13:04:08;;;;;;;2.00;1.77;;;;;;;;;;5050675;28;20198;-78
2022/05/24 13:06:37;;;;;;;3.83;2.60;;;;;;;;;;5051263;28;20619;-78
2022/05/24 13:09:20;;;;;;;2.50;2.20;;;;;;;;;;5051270;28;20575;-78
2022/05/24 13:11:51;;;;;;;2.23;2.03;;;;;;;;;;5051243;28;20219;-77
2022/05/24 13:14:45;;;;;;;2.70;2.50;;;;;;;;;;5050656;28;20206;-77
2022/05/24 13:17:17;;;;;;;2.43;2.23;;;;;;;;;;5051097;28;20183;-77
2022/05/24 13:19:53;;;;;;;6.00;2.30;;;;;;;;;;5050824;28;20258;-78
2022/05/24 13:22:21;;;;;;;2.27;2.07;;;;;;;;;;5050990;28;20250;-77
2022/05/24 13:25:00;;;;;;;3.43;2.07;;;;;;;;;;5050867;28;20194;-77
2022/05/24 13:27:27;;;;;;;4.13;2.07;;;;;;;;;;5051004;28;20186;-77
2022/05/24 13:35:31;;;;;;;3.70;3.40;;;;;;;;;;5049993;28;20213;-77
2022/05/24 13:38:00;;;;;;;6.10;5.70;;;;;;;;;;5050658;28;20298;-77
2022/05/24 13:40:39;;;;;;;1.60;1.50;;;;;;;;;;5050224;28;20289;-77
2022/05/24 13:43:07;;;;;;;1.77;1.67;;;;;;;;;;5049266;28;20243;-78
2022/05/24 13:45:36;;;;;;;3.40;2.63;;;;;;;;;;5050119;28;20198;-77
2022/05/24 13:48:24;;;;;;;3.47;3.17;;;;;;;;;;5050642;28;20255;-77
2022/05/24 13:50:52;;;;;;;2.97;2.77;;;;;;;;;;5050541;28;20611;-77
2022/05/24 13:53:30;;;;;;;3.53;2.80;;;;;;;;;;5050217;28;20205;-77
2022/05/24 13:56:00;;;;;;;3.60;3.27;;;;;;;;;;5050410;28;20225;-79
2022/05/24 13:58:34;;;;;;;2.93;2.73;;;;;;;;;;5050306;28;20201;-79
2022/05/24 14:01:04;;;;;;;5.13;4.63;;;;;;;;;;5050112;28;20242;-79
2022/05/24 14:03:48;;;;;;;4.17;3.87;;;;;;;;;;5050419;28;20194;-79
2022/05/24 14:06:17;;;;;;;3.77;3.47;;;;;;;;;;5050120;28;20681;-79
2022/05/24 14:08:45;;;;;;;3.90;3.40;;;;;;;;;;5049951;28;20206;-79
2022/05/24 14:11:15;;;;;;;4.40;4.00;;;;;;;;;;5050545;28;20198;-79
2022/05/24 14:13:43;;;;;;;3.17;2.87;;;;;;;;;;5049959;28;20577;-79
2022/05/24 14:16:10;;;;;;;3.27;3.07;;;;;;;;;;5049596;28;20243;-79
2022/05/24 14:18:39;;;;;;;4.93;4.50;;;;;;;;;;5049909;28;20194;-79
2022/05/24 14:21:07;;;;;;;3.87;3.57;;;;;;;;;;5050289;28;20194;-79
2022/05/24 14:23:35;;;;;;;4.27;3.90;;;;;;;;;;5049977;28;20194;-79
2022/05/24 14:26:03;;;;;;;3.60;3.30;;;;;;;;;;5049581;28;20190;-79
2022/05/24 14:28:30;;;;;;;3.30;3.10;;;;;;;;;;5048778;28;20198;-79
2022/05/24 14:30:58;;;;;;;7.00;6.30;;;;;;;;;;5040928;28;20214;-78
2022/05/24 14:33:26;;;;;;;6.50;4.70;;;;;;;;;;5029816;28;20203;-79
2022/05/24 14:35:55;;;;;;;5.40;4.97;;;;;;;;;;5029337;28;20295;-78
2022/05/24 14:38:22;;;;;;;4.10;3.80;;;;;;;;;;5029776;28;20206;-78
2022/05/24 14:40:51;;;;;;;4.10;3.80;;;;;;;;;;5030145;28;20625;-79
2022/05/24 14:43:21;;;;;;;3.73;3.47;;;;;;;;;;5029491;28;20252;-79
2022/05/24 14:45:48;;;;;;;5.07;3.60;;;;;;;;;;5029494;28;20195;-78
2022/05/24 14:48:15;;;;;;;4.60;4.20;;;;;;;;;;5028788;28;20201;-79
2022/05/24 14:50:42;;;;;;;4.77;3.60;;;;;;;;;;5030936;28;20198;-79
2022/05/24 14:53:11;;;;;;;4.13;3.83;;;;;;;;;;5049033;28;20666;-79
2022/05/24 14:55:40;;;;;;;5.20;3.53;;;;;;;;;;5048769;28;20226;-79
2022/05/24 14:58:07;;;;;;;3.60;3.37;;;;;;;;;;5049721;28;20280;-79
2022/05/24 15:00:37;;;;;;;4.47;3.97;;;;;;;;;;5049110;28;20229;-79
2022/05/24 15:03:05;;;;;;;4.73;3.83;;;;;;;;;;5049019;28;20195;-79
2022/05/24 15:05:33;;;;;;;5.50;4.10;;;;;;;;;;5049453;28;20222;-78
2022/05/24 15:16:19;;;;;;;4.07;3.77;;;;;;;;;;5049259;28;20205;-79
2022/05/24 15:18:46;;;;;;;5.60;3.57;;;;;;;;;;5048790;28;20714;-79
2022/05/24 15:21:15;;;;;;;6.17;4.00;;;;;;;;;;5049558;28;20194;-78
2022/05/24 15:23:43;;;;;;;5.60;4.00;;;;;;;;;;5048717;28;20213;-78
2022/05/24 15:26:15;;;;;;;6.60;3.83;;;;;;;;;;5048887;28;20701;-79
2022/05/24 15:28:44;;;;;;;3.70;3.50;;;;;;;;;;5048580;28;20190;-78
2022/05/24 15:31:11;;;;;;;4.10;3.73;;;;;;;;;;5048990;28;20287;-78
2022/05/24 15:33:39;;;;;;;4.33;3.93;;;;;;;;;;5048811;28;20201;-78
2022/05/24 15:36:06;;;;;;;5.63;3.90;;;;;;;;;;5047008;28;20228;-78
2022/05/24 15:38:33;;;;;;;3.90;3.70;;;;;;;;;;5048474;28;20212;-79
2022/05/24 15:41:02;;;;;;;4.13;3.77;;;;;;;;;;5033891;28;20202;-78
2022/05/24 15:43:31;;;;;;;6.83;3.80;;;;;;;;;;5029130;28;20259;-79
2022/05/24 15:45:58;;;;;;;4.73;3.97;;;;;;;;;;5028958;28;20221;-78
2022/05/24 15:48:25;;;;;;;4.60;4.10;;;;;;;;;;5028417;28;20195;-79
2022/05/24 15:50:52;;;;;;;4.40;4.10;;;;;;;;;;5028957;28;20198;-79
2022/05/24 15:53:19;;;;;;;4.20;3.90;;;;;;;;;;5033623;28;20203;-78